createdAt,value
2023-05-19T00:01:17.767Z,102340.88
2023-05-19T00:03:55.162Z,102335.59
2023-05-19T00:06:24.125Z,102339.28
2023-05-19T00:08:56.475Z,102339.38
2023-05-19T00:11:26.559Z,102339.69
2023-05-19T00:13:54.298Z,102346.31
2023-05-19T00:16:22.355Z,102343.31
2023-05-19T00:18:49.616Z,102343.94
2023-05-19T00:21:16.861Z,102339.03
2023-05-19T00:23:44.009Z,102344.94
2023-05-19T00:26:11.254Z,102337.94
2023-05-19T00:28:39.701Z,102336.84
2023-05-19T00:31:06.988Z,102333.09
2023-05-19T00:33:34.327Z,102323.06
2023-05-19T00:36:03.398Z,102328.34
2023-05-19T00:38:31.086Z,102318.59
2023-05-19T00:40:58.123Z,102322.13
2023-05-19T00:43:25.361Z,102319.94
2023-05-19T00:45:53.681Z,102318.31
2023-05-19T00:48:21.131Z,102321.31
2023-05-19T00:50:48.548Z,102316.63
2023-05-19T00:53:18.575Z,102316.72
2023-05-19T00:55:46.349Z,102315.38
2023-05-19T00:58:14.857Z,102306.47
2023-05-19T01:00:42.769Z,102302.00
2023-05-19T01:03:11.715Z,102303.44
2023-05-19T01:05:41.707Z,102299.22
2023-05-19T01:08:09.195Z,102299.84
2023-05-19T01:10:36.907Z,102302.09
2023-05-19T01:13:05.388Z,102295.88
2023-05-19T01:15:36.397Z,102296.81
2023-05-19T01:18:11.282Z,102294.63
2023-05-19T01:20:46.487Z,102301.53
2023-05-19T01:23:27.574Z,102304.31
2023-05-19T01:26:26.071Z,102296.78
2023-05-19T01:29:23.328Z,102294.31
2023-05-19T01:31:55.041Z,102295.22
2023-05-19T01:34:23.858Z,102290.84
2023-05-19T01:36:52.277Z,102287.84
2023-05-19T01:39:20.375Z,102289.28
2023-05-19T01:41:48.073Z,102295.91
2023-05-19T01:44:16.174Z,102291.03
2023-05-19T01:46:43.870Z,102296.81
2023-05-19T01:49:13.668Z,102297.50
2023-05-19T01:51:41.477Z,102302.25
2023-05-19T01:54:08.413Z,102295.00
2023-05-19T01:56:45.158Z,102299.63
2023-05-19T01:59:23.299Z,102295.75
2023-05-19T02:01:54.075Z,102298.25
2023-05-19T02:04:31.609Z,102296.06
2023-05-19T02:07:03.875Z,102294.47
2023-05-19T02:09:52.286Z,102299.53
2023-05-19T02:12:23.567Z,102300.81
2023-05-19T02:14:58.837Z,102300.91
2023-05-19T02:17:29.434Z,102290.25
2023-05-19T02:19:57.668Z,102292.28
2023-05-19T02:22:24.715Z,102287.59
2023-05-19T02:24:51.924Z,102285.94
2023-05-19T02:27:18.991Z,102280.06
2023-05-19T02:29:46.095Z,102289.34
2023-05-19T02:32:13.288Z,102287.44
2023-05-19T02:34:42.295Z,102275.38
2023-05-19T02:37:10.615Z,102281.94
2023-05-19T02:39:37.452Z,102272.38
2023-05-19T02:42:04.870Z,102274.84
2023-05-19T02:44:31.745Z,102276.06
2023-05-19T02:46:58.595Z,102273.50
2023-05-19T02:49:25.448Z,102273.81
2023-05-19T02:51:53.016Z,102268.50
2023-05-19T02:54:21.270Z,102256.81
2023-05-19T02:56:48.134Z,102255.97
2023-05-19T02:59:15.045Z,102257.66
2023-05-19T03:01:42.086Z,102254.25
2023-05-19T03:04:09.093Z,102260.66
2023-05-19T03:06:36.406Z,102248.22
2023-05-19T03:09:03.735Z,102252.44
2023-05-19T03:11:32.040Z,102247.16
2023-05-19T03:13:58.888Z,102253.56
2023-05-19T03:16:25.838Z,102249.34
2023-05-19T03:18:53.055Z,102253.63
2023-05-19T03:21:19.985Z,102245.94
2023-05-19T03:23:47.339Z,102246.25
2023-05-19T03:26:14.250Z,102249.56
2023-05-19T03:28:42.558Z,102247.97
2023-05-19T03:31:09.492Z,102247.13
2023-05-19T03:33:36.409Z,102250.84
2023-05-19T03:36:04.162Z,102248.59
2023-05-19T03:38:31.044Z,102249.91
2023-05-19T03:40:57.950Z,102247.91
2023-05-19T03:43:24.918Z,102251.00
2023-05-19T03:45:53.690Z,102256.03
2023-05-19T03:48:21.378Z,102252.72
2023-05-19T03:50:48.648Z,102261.69
2023-05-19T03:53:15.767Z,102262.69
2023-05-19T03:55:42.716Z,102258.44
2023-05-19T03:58:10.698Z,102263.69
2023-05-19T04:00:38.050Z,102270.41
2023-05-19T04:03:06.468Z,102276.00
2023-05-19T04:05:33.465Z,102277.03
2023-05-19T04:08:00.329Z,102269.22
2023-05-19T04:10:27.410Z,102267.78
2023-05-19T04:12:54.288Z,102268.25
2023-05-19T04:15:21.499Z,102267.19
2023-05-19T04:17:48.398Z,102265.16
2023-05-19T04:20:16.714Z,102264.34
2023-05-19T04:22:43.571Z,102269.00
2023-05-19T04:25:10.564Z,102274.25
2023-05-19T04:27:38.988Z,102276.66
2023-05-19T04:30:06.947Z,102279.66
2023-05-19T04:32:33.890Z,102279.38
2023-05-19T04:35:00.800Z,102275.16
2023-05-19T04:37:30.007Z,102280.16
2023-05-19T04:39:57.239Z,102284.00
2023-05-19T04:42:26.269Z,102282.34
2023-05-19T04:44:53.249Z,102278.63
2023-05-19T04:47:21.642Z,102283.31
2023-05-19T04:49:48.671Z,102280.69
2023-05-19T04:52:15.951Z,102279.13
2023-05-19T04:54:44.344Z,102276.34
2023-05-19T04:57:11.227Z,102280.88
2023-05-19T04:59:38.068Z,102276.88
2023-05-19T05:02:05.070Z,102279.81
2023-05-19T05:04:32.569Z,102283.53
2023-05-19T05:06:59.435Z,102291.38
2023-05-19T05:09:26.357Z,102289.81
2023-05-19T05:11:55.426Z,102293.06
2023-05-19T05:14:22.901Z,102294.63
2023-05-19T05:16:50.826Z,102302.31
2023-05-19T05:19:18.369Z,102303.06
2023-05-19T05:21:45.955Z,102291.06
2023-05-19T05:24:13.883Z,102299.00
2023-05-19T05:26:41.457Z,102308.19
2023-05-19T05:29:10.403Z,102307.13
2023-05-19T05:31:37.958Z,102311.31
2023-05-19T05:34:04.834Z,102310.66
2023-05-19T05:36:31.995Z,102320.13
2023-05-19T05:38:59.649Z,102334.19
2023-05-19T05:41:27.471Z,102325.50
2023-05-19T05:43:54.519Z,102323.03
2023-05-19T05:46:22.906Z,102324.97
2023-05-19T05:48:50.462Z,102317.88
2023-05-19T05:51:17.902Z,102319.06
2023-05-19T05:53:48.036Z,102323.28
2023-05-19T05:56:15.569Z,102324.59
2023-05-19T05:58:42.560Z,102320.53
2023-05-19T06:01:11.296Z,102318.25
2023-05-19T06:03:41.627Z,102326.84
2023-05-19T06:06:08.609Z,102334.03
2023-05-19T06:08:35.604Z,102321.53
2023-05-19T06:11:08.392Z,102324.53
2023-05-19T06:13:36.059Z,102329.75
2023-05-19T06:16:03.223Z,102337.56
2023-05-19T06:18:30.115Z,102333.47
2023-05-19T06:20:58.895Z,102324.88
2023-05-19T06:23:27.014Z,102328.34
2023-05-19T06:25:53.896Z,102339.50
2023-05-19T06:28:21.012Z,102327.31
2023-05-19T06:30:48.062Z,102327.13
2023-05-19T06:33:14.973Z,102328.09
2023-05-19T06:35:41.985Z,102329.09
2023-05-19T06:38:10.307Z,102327.69
2023-05-19T06:40:37.236Z,102324.28
2023-05-19T06:43:04.919Z,102321.06
2023-05-19T06:45:31.926Z,102322.41
2023-05-19T06:47:58.914Z,102329.75
2023-05-19T06:50:26.334Z,102333.41
2023-05-19T06:52:53.297Z,102340.25
2023-05-19T06:55:21.772Z,102319.63
2023-05-19T06:57:48.694Z,102326.22
2023-05-19T07:00:18.811Z,102319.75
2023-05-19T07:02:47.571Z,102333.09
2023-05-19T07:05:14.887Z,102315.41
2023-05-19T07:07:42.335Z,102323.69
2023-05-19T07:10:10.210Z,102314.81
2023-05-19T07:12:38.502Z,102320.16
2023-05-19T07:15:06.427Z,102317.53
2023-05-19T07:17:33.390Z,102318.56
2023-05-19T07:20:01.667Z,102312.69
2023-05-19T07:22:28.655Z,102313.66
2023-05-19T07:24:57.169Z,102313.03
2023-05-19T07:27:24.059Z,102317.53
2023-05-19T07:29:52.292Z,102330.09
2023-05-19T07:32:19.291Z,102321.84
2023-05-19T07:34:46.240Z,102320.31
2023-05-19T07:37:13.108Z,102319.84
2023-05-19T07:39:40.034Z,102317.03
2023-05-19T07:42:06.918Z,102320.63
2023-05-19T07:44:34.738Z,102313.81
2023-05-19T07:47:03.080Z,102312.47
2023-05-19T07:49:30.201Z,102313.53
2023-05-19T07:51:57.506Z,102315.28
2023-05-19T07:54:24.363Z,102306.22
2023-05-19T07:56:51.297Z,102311.50
2023-05-19T07:59:18.272Z,102310.81
2023-05-19T08:01:45.212Z,102312.28
2023-05-19T08:04:14.166Z,102301.59
2023-05-19T08:06:42.896Z,102300.78
2023-05-19T08:09:09.874Z,102301.94
2023-05-19T08:11:37.124Z,102303.16
2023-05-19T08:14:04.059Z,102305.63
2023-05-19T08:16:31.126Z,102298.22
2023-05-19T08:18:58.242Z,102286.34
2023-05-19T08:21:26.553Z,102292.25
2023-05-19T08:23:53.546Z,102291.78
2023-05-19T08:26:21.582Z,102288.94
2023-05-19T08:28:48.663Z,102288.59
2023-05-19T08:31:15.649Z,102300.31
2023-05-19T08:33:42.618Z,102289.63
2023-05-19T08:36:09.643Z,102281.00
2023-05-19T08:38:37.901Z,102285.63
2023-05-19T08:41:05.961Z,102282.94
2023-05-19T08:43:33.221Z,102284.38
2023-05-19T08:46:00.771Z,102283.91
2023-05-19T08:48:29.444Z,102289.13
2023-05-19T08:51:06.505Z,102280.25
2023-05-19T08:53:40.605Z,102275.75
2023-05-19T08:56:12.127Z,102278.97
2023-05-19T08:58:40.405Z,102276.28
2023-05-19T09:01:07.850Z,102274.22
2023-05-19T09:03:39.275Z,102278.97
2023-05-19T09:06:08.575Z,102279.13
2023-05-19T09:08:37.524Z,102278.16
2023-05-19T09:11:06.087Z,102280.31
2023-05-19T09:13:33.027Z,102274.16
2023-05-19T09:16:00.109Z,102278.25
2023-05-19T09:18:27.344Z,102272.56
2023-05-19T09:21:00.661Z,102278.56
2023-05-19T09:23:29.660Z,102270.56
2023-05-19T09:25:57.555Z,102263.81
2023-05-19T09:28:28.006Z,102262.59
2023-05-19T09:31:00.215Z,102267.84
2023-05-19T09:33:27.174Z,102264.94
2023-05-19T09:35:54.707Z,102270.97
2023-05-19T09:38:21.613Z,102281.91
2023-05-19T09:40:48.815Z,102265.50
2023-05-19T09:43:16.242Z,102264.66
2023-05-19T09:45:44.613Z,102257.47
2023-05-19T09:48:11.723Z,102259.88
2023-05-19T09:50:38.658Z,102255.25
2023-05-19T09:53:05.592Z,102249.81
2023-05-19T09:55:33.716Z,102252.59
2023-05-19T09:58:05.098Z,102250.97
2023-05-19T10:00:33.067Z,102252.34
2023-05-19T10:03:05.341Z,102254.09
2023-05-19T10:05:33.761Z,102250.56
2023-05-19T10:08:02.620Z,102252.47
2023-05-19T10:10:31.299Z,102262.09
2023-05-19T10:13:00.188Z,102253.44
2023-05-19T10:15:27.271Z,102248.28
2023-05-19T10:17:55.170Z,102243.78
2023-05-19T10:20:23.546Z,102246.16
2023-05-19T10:22:50.464Z,102240.41
2023-05-19T10:25:19.906Z,102246.03
2023-05-19T10:27:52.216Z,102238.41
2023-05-19T10:30:26.109Z,102244.63
2023-05-19T10:32:54.860Z,102242.09
2023-05-19T10:35:59.770Z,102234.88
2023-05-19T10:38:33.741Z,102210.91
2023-05-19T10:41:09.050Z,102223.22
2023-05-19T10:43:55.119Z,102221.78
2023-05-19T10:46:25.520Z,102217.88
2023-05-19T10:48:52.550Z,102214.03
2023-05-19T10:51:20.981Z,102215.03
2023-05-19T10:53:49.984Z,102213.63
2023-05-19T10:56:31.157Z,102217.28
2023-05-19T10:58:58.069Z,102213.94
2023-05-19T11:01:31.591Z,102219.06
2023-05-19T11:04:04.324Z,102219.03
2023-05-19T11:06:34.218Z,102227.31
2023-05-19T11:09:02.435Z,102213.75
2023-05-19T11:11:45.437Z,102215.75
2023-05-19T11:14:15.632Z,102216.31
2023-05-19T11:16:43.325Z,102214.75
2023-05-19T11:19:20.006Z,102207.53
2023-05-19T11:21:52.761Z,102206.16
2023-05-19T11:24:40.204Z,102211.72
2023-05-19T11:27:31.531Z,102200.94
2023-05-19T11:30:00.238Z,102207.00
2023-05-19T11:32:28.931Z,102199.16
2023-05-19T11:34:56.440Z,102200.13
2023-05-19T11:37:24.891Z,102206.59
2023-05-19T11:39:52.456Z,102203.13
2023-05-19T11:42:19.475Z,102198.09
2023-05-19T11:44:47.162Z,102199.50
2023-05-19T11:47:14.762Z,102192.31
2023-05-19T11:49:44.374Z,102195.66
2023-05-19T11:52:11.523Z,102181.41
2023-05-19T11:54:41.931Z,102179.88
2023-05-19T11:57:10.583Z,102168.00
2023-05-19T11:59:39.274Z,102185.47
2023-05-19T12:02:17.663Z,102186.72
2023-05-19T12:04:45.215Z,102182.72
2023-05-19T12:07:20.204Z,102191.31
2023-05-19T12:09:49.626Z,102160.72
2023-05-19T12:12:18.784Z,102169.56
2023-05-19T12:14:46.948Z,102175.91
2023-05-19T12:17:21.518Z,102166.69
2023-05-19T12:19:49.733Z,102167.59
2023-05-19T12:22:18.447Z,102169.47
2023-05-19T12:24:49.606Z,102160.25
2023-05-19T12:27:20.130Z,102161.31
2023-05-19T12:29:50.643Z,102157.72
2023-05-19T12:32:17.584Z,102170.59
2023-05-19T12:34:44.600Z,102155.81
2023-05-19T12:37:11.788Z,102172.41
2023-05-19T12:39:40.167Z,102168.56
2023-05-19T12:42:09.627Z,102165.25
2023-05-19T12:44:42.608Z,102153.09
2023-05-19T12:47:09.488Z,102156.00
2023-05-19T12:49:36.695Z,102155.22
2023-05-19T12:52:07.204Z,102145.38
2023-05-19T12:54:37.812Z,102159.31
2023-05-19T12:57:06.714Z,102148.84
2023-05-19T12:59:38.801Z,102147.94
2023-05-19T13:02:07.568Z,102142.19
2023-05-19T13:04:34.670Z,102156.50
2023-05-19T13:07:01.831Z,102149.66
2023-05-19T13:09:29.074Z,102159.94
2023-05-19T13:11:56.079Z,102147.09
2023-05-19T13:14:22.994Z,102158.59
2023-05-19T13:16:49.912Z,102152.44
2023-05-19T13:19:24.970Z,102141.69
2023-05-19T13:21:52.590Z,102137.47
2023-05-19T13:24:19.521Z,102135.56
2023-05-19T13:26:46.530Z,102132.31
2023-05-19T13:29:13.580Z,102137.34
2023-05-19T13:31:40.724Z,102132.78
2023-05-19T13:34:08.014Z,102130.03
2023-05-19T13:36:36.599Z,102130.56
2023-05-19T13:39:03.656Z,102130.72
2023-05-19T13:41:30.555Z,102131.00
2023-05-19T13:43:59.582Z,102135.94
2023-05-19T13:46:40.895Z,102129.84
2023-05-19T13:49:12.071Z,102135.63
2023-05-19T13:51:42.862Z,102129.84
2023-05-19T13:54:10.064Z,102125.25
2023-05-19T13:56:37.018Z,102106.16
2023-05-19T13:59:04.221Z,102117.56
2023-05-19T14:01:31.301Z,102125.06
2023-05-19T14:03:58.465Z,102133.00
2023-05-19T14:06:25.466Z,102134.16
2023-05-19T14:08:53.700Z,102148.28
2023-05-19T14:11:21.683Z,102135.56
2023-05-19T14:13:53.063Z,102128.69
2023-05-19T14:16:22.100Z,102133.38
2023-05-19T14:18:49.383Z,102123.53
2023-05-19T14:21:16.378Z,102124.56
2023-05-19T14:23:43.325Z,102120.34
2023-05-19T14:26:11.684Z,102123.78
2023-05-19T14:28:38.588Z,102111.72
2023-05-19T14:31:06.295Z,102111.00
2023-05-19T14:33:35.656Z,102109.91
2023-05-19T14:36:02.936Z,102117.56
2023-05-19T14:38:29.914Z,102113.72
2023-05-19T14:40:56.913Z,102119.75
2023-05-19T14:43:25.262Z,102113.22
2023-05-19T14:45:52.219Z,102110.13
2023-05-19T14:48:19.146Z,102119.25
2023-05-19T14:50:48.337Z,102105.63
2023-05-19T14:53:15.532Z,102119.22
2023-05-19T14:55:42.455Z,102108.22
2023-05-19T14:58:19.985Z,102119.69
2023-05-19T15:00:57.831Z,102114.34
2023-05-19T15:03:25.014Z,102117.53
2023-05-19T15:05:52.149Z,102109.56
2023-05-19T15:08:19.109Z,102108.66
2023-05-19T15:10:48.772Z,102104.16
2023-05-19T15:13:16.183Z,102098.47
2023-05-19T15:15:43.078Z,102103.69
2023-05-19T15:18:16.304Z,102088.22
2023-05-19T15:20:43.950Z,102101.56
2023-05-19T15:23:11.067Z,102092.59
2023-05-19T15:25:38.068Z,102097.63
2023-05-19T15:28:05.170Z,102099.94
2023-05-19T15:30:32.064Z,102095.16
2023-05-19T15:32:59.044Z,102086.50
2023-05-19T15:35:27.647Z,102098.59
2023-05-19T15:37:54.531Z,102103.94
2023-05-19T15:40:21.495Z,102103.81
2023-05-19T15:42:48.404Z,102091.22
2023-05-19T15:45:15.295Z,102098.63
2023-05-19T15:47:42.281Z,102095.78
2023-05-19T15:50:10.010Z,102093.44
2023-05-19T15:52:38.285Z,102099.63
2023-05-19T15:55:06.166Z,102087.75
2023-05-19T15:57:33.079Z,102093.34
2023-05-19T16:00:00.041Z,102090.34
2023-05-19T16:02:27.128Z,102085.13
2023-05-19T16:04:54.163Z,102090.25
2023-05-19T16:07:22.586Z,102088.59
2023-05-19T16:09:51.071Z,102089.06
2023-05-19T16:12:18.106Z,102088.19
2023-05-19T16:14:44.987Z,102086.28
2023-05-19T16:17:13.753Z,102086.66
2023-05-19T16:19:40.747Z,102084.06
2023-05-19T16:22:07.707Z,102087.50
2023-05-19T16:24:34.649Z,102090.41
2023-05-19T16:27:03.033Z,102080.19
2023-05-19T16:29:29.839Z,102080.47
2023-05-19T16:31:56.741Z,102069.25
2023-05-19T16:34:23.850Z,102076.47
2023-05-19T16:36:50.785Z,102076.31
2023-05-19T16:39:17.682Z,102072.19
2023-05-19T16:41:44.673Z,102067.88
2023-05-19T16:44:14.688Z,102066.75
2023-05-19T16:46:41.694Z,102073.25
2023-05-19T16:49:09.078Z,102065.09
2023-05-19T16:51:35.952Z,102066.66
2023-05-19T16:54:02.911Z,102060.06
2023-05-19T16:56:44.810Z,102050.84
2023-05-19T16:59:13.152Z,102044.81
2023-05-19T17:01:40.059Z,102053.00
2023-05-19T17:04:06.961Z,102060.31
2023-05-19T17:06:33.936Z,102059.91
2023-05-19T17:09:00.901Z,102063.63
2023-05-19T17:11:28.090Z,102057.22
2023-05-19T17:13:54.991Z,102070.28
2023-05-19T17:16:23.901Z,102073.94
2023-05-19T17:18:51.464Z,102068.94
2023-05-19T17:21:18.520Z,102063.56
2023-05-19T17:23:45.642Z,102063.06
2023-05-19T17:26:12.548Z,102059.78
2023-05-19T17:28:39.478Z,102056.03
2023-05-19T17:31:10.130Z,102066.91
2023-05-19T17:33:38.504Z,102058.88
2023-05-19T17:36:06.605Z,102057.25
2023-05-19T17:38:33.536Z,102055.59
2023-05-19T17:41:00.997Z,102064.91
2023-05-19T17:43:28.370Z,102071.28
2023-05-19T17:45:55.351Z,102067.63
2023-05-19T17:48:22.307Z,102070.53
2023-05-19T17:50:50.600Z,102065.53
2023-05-19T17:53:18.181Z,102071.00
2023-05-19T17:55:50.368Z,102068.59
2023-05-19T17:58:17.838Z,102073.72
2023-05-19T18:00:45.862Z,102070.59
2023-05-19T18:03:13.414Z,102078.34
2023-05-19T18:05:43.345Z,102069.69
2023-05-19T18:08:13.605Z,102068.91
2023-05-19T18:10:41.884Z,102064.59
2023-05-19T18:13:10.538Z,102070.97
2023-05-19T18:15:37.661Z,102066.06
2023-05-19T18:18:07.484Z,102071.91
2023-05-19T18:20:35.043Z,102065.56
2023-05-19T18:23:02.902Z,102072.59
2023-05-19T18:25:31.283Z,102071.22
2023-05-19T18:27:58.156Z,102070.97
2023-05-19T18:30:25.074Z,102073.06
2023-05-19T18:32:51.989Z,102074.88
2023-05-19T18:35:21.142Z,102066.94
2023-05-19T18:37:48.020Z,102065.69
2023-05-19T18:40:14.916Z,102073.88
2023-05-19T18:42:43.241Z,102073.53
2023-05-19T18:45:10.683Z,102072.59
2023-05-19T18:47:37.665Z,102068.25
2023-05-19T18:50:05.419Z,102074.44
2023-05-19T18:52:32.437Z,102073.44
2023-05-19T18:55:01.150Z,102077.75
2023-05-19T18:57:28.071Z,102081.63
2023-05-19T18:59:56.392Z,102080.63
2023-05-19T19:02:23.302Z,102084.44
2023-05-19T19:04:50.263Z,102085.78
2023-05-19T19:07:17.248Z,102081.44
2023-05-19T19:09:44.117Z,102092.25
2023-05-19T19:12:11.259Z,102077.75
2023-05-19T19:14:38.732Z,102087.00
2023-05-19T19:17:07.245Z,102089.84
2023-05-19T19:19:34.229Z,102092.06
2023-05-19T19:22:01.187Z,102084.41
2023-05-19T19:24:28.573Z,102087.50
2023-05-19T19:26:55.564Z,102090.06
2023-05-19T19:29:22.455Z,102097.56
2023-05-19T19:31:49.385Z,102102.84
2023-05-19T19:34:19.872Z,102100.00
2023-05-19T19:36:47.928Z,102106.63
2023-05-19T19:39:14.875Z,102107.22
2023-05-19T19:41:41.909Z,102105.34
2023-05-19T19:44:08.915Z,102103.25
2023-05-19T19:46:36.008Z,102109.69
2023-05-19T19:49:03.001Z,102112.34
2023-05-19T19:51:31.773Z,102108.84
2023-05-19T19:53:59.152Z,102110.50
2023-05-19T19:56:27.589Z,102111.94
2023-05-19T19:58:56.924Z,102114.94
2023-05-19T20:01:27.606Z,102117.78
2023-05-19T20:03:55.461Z,102119.03
2023-05-19T20:06:22.584Z,102123.31
2023-05-19T20:08:50.883Z,102125.16
2023-05-19T20:11:17.833Z,102124.56
2023-05-19T20:13:44.960Z,102130.69
2023-05-19T20:16:11.896Z,102133.13
2023-05-19T20:18:39.607Z,102135.94
2023-05-19T20:21:06.619Z,102134.88
2023-05-19T20:23:33.717Z,102126.66
2023-05-19T20:26:10.980Z,102132.28
2023-05-19T20:28:39.380Z,102135.56
2023-05-19T20:31:06.515Z,102136.84
2023-05-19T20:33:33.517Z,102138.94
2023-05-19T20:36:00.493Z,102136.41
2023-05-19T20:38:27.421Z,102138.47
2023-05-19T20:40:54.387Z,102133.53
2023-05-19T20:43:22.733Z,102142.44
2023-05-19T20:45:49.738Z,102138.56
2023-05-19T20:48:16.795Z,102131.25
2023-05-19T20:50:43.980Z,102131.91
2023-05-19T20:53:11.018Z,102133.22
2023-05-19T20:55:38.680Z,102135.34
2023-05-19T20:58:05.786Z,102129.09
2023-05-19T21:00:34.200Z,102124.72
2023-05-19T21:03:01.579Z,102127.59
2023-05-19T21:05:29.083Z,102132.25
2023-05-19T21:07:56.464Z,102135.09
2023-05-19T21:10:23.605Z,102134.31
2023-05-19T21:12:50.535Z,102138.72
2023-05-19T21:15:17.519Z,102131.84
2023-05-19T21:17:46.652Z,102137.00
2023-05-19T21:20:13.688Z,102132.25
2023-05-19T21:22:41.044Z,102142.06
2023-05-19T21:25:08.638Z,102137.06
2023-05-19T21:27:36.387Z,102145.88
2023-05-19T21:30:03.710Z,102147.00
2023-05-19T21:32:31.021Z,102147.69
2023-05-19T21:35:00.008Z,102149.16
2023-05-19T21:37:26.948Z,102133.28
2023-05-19T21:39:53.927Z,102141.66
2023-05-19T21:42:20.826Z,102134.72
2023-05-19T21:44:47.707Z,102134.63
2023-05-19T21:47:14.842Z,102125.03
2023-05-19T21:49:41.769Z,102128.53
2023-05-19T21:52:10.427Z,102125.63
2023-05-19T21:54:37.453Z,102124.78
2023-05-19T21:57:04.772Z,102126.00
2023-05-19T21:59:31.649Z,102121.19
2023-05-19T22:01:58.899Z,102129.97
2023-05-19T22:04:25.940Z,102121.09
2023-05-19T22:06:52.799Z,102124.28
2023-05-19T22:09:21.694Z,102114.88
2023-05-19T22:11:48.545Z,102117.06
2023-05-19T22:14:15.645Z,102113.91
2023-05-19T22:16:42.593Z,102114.56
2023-05-19T22:19:10.564Z,102118.06
2023-05-19T22:21:37.597Z,102117.25
2023-05-19T22:24:04.707Z,102129.84
2023-05-19T22:26:34.395Z,102122.06
2023-05-19T22:29:01.782Z,102121.03
2023-05-19T22:31:29.712Z,102118.94
2023-05-19T22:33:56.684Z,102120.41
2023-05-19T22:36:23.833Z,102116.13
2023-05-19T22:38:50.693Z,102119.31
2023-05-19T22:41:17.604Z,102111.34
2023-05-19T22:43:46.007Z,102109.06
2023-05-19T22:46:13.111Z,102103.94
2023-05-19T22:48:39.969Z,102112.91
2023-05-19T22:51:06.854Z,102111.41
2023-05-19T22:53:33.704Z,102108.25
2023-05-19T22:56:00.575Z,102107.59
2023-05-19T22:58:27.437Z,102107.47
2023-05-19T23:00:56.228Z,102104.13
2023-05-19T23:03:23.320Z,102098.69
2023-05-19T23:05:50.254Z,102102.34
2023-05-19T23:08:17.109Z,102101.69
2023-05-19T23:10:44.769Z,102102.00
2023-05-19T23:13:12.035Z,102106.78
2023-05-19T23:15:38.902Z,102104.50
2023-05-19T23:18:08.692Z,102097.84
2023-05-19T23:20:35.807Z,102097.19
2023-05-19T23:23:02.780Z,102103.00
2023-05-19T23:25:29.759Z,102096.38
2023-05-19T23:27:56.656Z,102094.09
2023-05-19T23:30:23.563Z,102093.78
2023-05-19T23:32:50.493Z,102099.38
2023-05-19T23:35:20.086Z,102094.91
2023-05-19T23:37:47.033Z,102089.47
2023-05-19T23:40:14.435Z,102093.28
2023-05-19T23:42:41.395Z,102087.16
2023-05-19T23:45:08.991Z,102087.97
2023-05-19T23:47:35.968Z,102085.50
2023-05-19T23:50:03.019Z,102088.47
2023-05-19T23:52:32.804Z,102078.06
2023-05-19T23:54:59.789Z,102080.56
2023-05-19T23:57:26.633Z,102088.31
2023-05-19T23:59:53.505Z,102081.22
